createdAt,value
2022-10-11T00:00:00.615Z,5.87
2022-10-11T00:02:46.094Z,5.90
2022-10-11T00:05:31.764Z,5.82
2022-10-11T00:08:16.984Z,5.68
2022-10-11T00:11:05.015Z,5.55
2022-10-11T00:13:49.962Z,5.73
2022-10-11T00:16:35.016Z,5.57
2022-10-11T00:19:20.931Z,5.36
2022-10-11T00:22:06.226Z,5.55
2022-10-11T00:24:52.826Z,5.60
2022-10-11T00:27:38.270Z,5.41
2022-10-11T00:30:23.358Z,5.43
2022-10-11T00:33:08.530Z,5.47
2022-10-11T00:35:53.645Z,5.56
2022-10-11T00:38:39.144Z,5.58
2022-10-11T00:41:24.378Z,5.52
2022-10-11T00:44:12.831Z,5.55
2022-10-11T00:47:06.395Z,5.45
2022-10-11T00:49:59.427Z,5.53
2022-10-11T00:52:53.165Z,5.45
2022-10-11T00:56:00.618Z,5.39
2022-10-11T00:58:46.690Z,5.44
2022-10-11T01:01:31.943Z,5.44
2022-10-11T01:04:17.000Z,5.39
2022-10-11T01:07:02.534Z,5.38
2022-10-11T01:09:47.477Z,5.31
2022-10-11T01:12:33.064Z,5.31
2022-10-11T01:15:45.517Z,5.06
2022-10-11T01:18:39.929Z,5.15
2022-10-11T01:21:37.377Z,5.16
2022-10-11T01:24:34.131Z,5.13
2022-10-11T01:27:38.278Z,5.08
2022-10-11T01:30:35.008Z,5.02
2022-10-11T01:33:32.133Z,5.05
2022-10-11T01:36:31.284Z,5.00
2022-10-11T01:39:38.313Z,4.93
2022-10-11T01:42:24.533Z,5.00
2022-10-11T01:45:17.042Z,4.95
2022-10-11T01:48:13.550Z,4.90
2022-10-11T01:51:02.106Z,4.86
2022-10-11T01:54:04.541Z,4.79
2022-10-11T01:56:49.493Z,4.76
2022-10-11T01:59:46.466Z,4.63
2022-10-11T02:02:45.716Z,4.75
2022-10-11T02:05:36.651Z,4.81
2022-10-11T02:08:21.636Z,4.75
2022-10-11T02:11:09.379Z,4.62
2022-10-11T02:13:59.825Z,4.70
2022-10-11T02:16:54.218Z,4.66
2022-10-11T02:19:42.778Z,4.63
2022-10-11T02:22:36.285Z,4.57
2022-10-11T02:25:26.363Z,4.53
2022-10-11T02:28:16.540Z,4.46
2022-10-11T02:31:05.850Z,4.54
2022-10-11T02:33:58.957Z,4.49
2022-10-11T02:37:24.715Z,4.47
2022-10-11T02:40:26.989Z,4.44
2022-10-11T02:43:24.077Z,4.41
2022-10-11T02:46:10.260Z,4.32
2022-10-11T02:48:57.893Z,4.39
2022-10-11T02:51:42.961Z,4.34
2022-10-11T02:54:28.301Z,4.29
2022-10-11T02:57:13.485Z,4.26
2022-10-11T02:59:58.351Z,4.28
2022-10-11T03:02:43.279Z,4.28
2022-10-11T03:05:28.415Z,4.27
2022-10-11T03:08:15.227Z,4.23
2022-10-11T03:11:00.230Z,4.26
2022-10-11T03:13:45.332Z,4.27
2022-10-11T03:16:30.402Z,4.23
2022-10-11T03:19:19.120Z,3.98
2022-10-11T03:22:04.617Z,4.17
2022-10-11T03:24:49.768Z,4.12
2022-10-11T03:27:35.236Z,4.11
2022-10-11T03:30:20.673Z,4.14
2022-10-11T03:33:06.185Z,4.14
2022-10-11T03:35:51.198Z,4.09
2022-10-11T03:38:36.562Z,4.08
2022-10-11T03:41:21.865Z,4.05
2022-10-11T03:44:06.877Z,4.04
2022-10-11T03:46:51.952Z,3.91
2022-10-11T03:49:39.977Z,4.07
2022-10-11T03:52:28.749Z,4.06
2022-10-11T03:55:14.552Z,4.04
2022-10-11T03:57:59.706Z,4.02
2022-10-11T04:00:45.044Z,4.00
2022-10-11T04:03:29.906Z,4.06
2022-10-11T04:06:15.196Z,4.04
2022-10-11T04:09:00.347Z,4.01
2022-10-11T04:11:45.587Z,3.96
2022-10-11T04:14:30.578Z,3.99
2022-10-11T04:17:15.829Z,3.98
2022-10-11T04:20:00.880Z,3.95
2022-10-11T04:22:45.726Z,3.81
2022-10-11T04:25:30.958Z,3.98
2022-10-11T04:28:16.254Z,3.93
2022-10-11T04:31:01.607Z,3.92
2022-10-11T04:33:46.874Z,3.90
2022-10-11T04:36:33.905Z,3.89
2022-10-11T04:39:18.770Z,3.83
2022-10-11T04:42:04.386Z,3.84
2022-10-11T04:44:49.587Z,3.76
2022-10-11T04:47:34.948Z,3.71
2022-10-11T04:50:20.194Z,3.70
2022-10-11T04:53:05.382Z,3.60
2022-10-11T04:56:02.167Z,3.73
2022-10-11T04:58:49.330Z,3.71
2022-10-11T05:01:34.920Z,3.70
2022-10-11T05:04:20.386Z,3.69
2022-10-11T05:07:06.545Z,3.57
2022-10-11T05:09:51.889Z,3.70
2022-10-11T05:12:37.249Z,3.67
2022-10-11T05:15:22.434Z,3.65
2022-10-11T05:18:07.224Z,3.49
2022-10-11T05:21:14.336Z,3.50
2022-10-11T05:23:59.159Z,3.60
2022-10-11T05:26:44.310Z,3.57
2022-10-11T05:29:29.426Z,3.46
2022-10-11T05:32:14.627Z,3.45
2022-10-11T05:34:59.781Z,3.55
2022-10-11T05:37:45.054Z,3.46
2022-10-11T05:40:29.919Z,3.54
2022-10-11T05:43:15.317Z,3.59
2022-10-11T05:46:00.395Z,3.52
2022-10-11T05:48:45.653Z,3.53
2022-10-11T05:51:30.878Z,3.49
2022-10-11T05:54:15.882Z,3.43
2022-10-11T05:57:00.781Z,3.30
2022-10-11T05:59:45.645Z,3.46
2022-10-11T06:02:30.670Z,3.50
2022-10-11T06:05:16.793Z,3.39
2022-10-11T06:08:02.841Z,3.36
2022-10-11T06:10:47.802Z,3.19
2022-10-11T06:13:32.840Z,3.14
2022-10-11T06:16:17.908Z,3.26
2022-10-11T06:19:03.866Z,3.25
2022-10-11T06:21:49.094Z,3.22
2022-10-11T06:24:34.354Z,3.16
2022-10-11T06:27:19.351Z,3.24
2022-10-11T06:30:05.637Z,3.23
2022-10-11T06:32:50.726Z,3.17
2022-10-11T06:35:35.587Z,3.11
2022-10-11T06:38:20.556Z,3.08
2022-10-11T06:41:20.351Z,3.25
2022-10-11T06:44:05.469Z,3.20
2022-10-11T06:46:50.626Z,3.41
2022-10-11T06:49:35.849Z,3.29
2022-10-11T06:52:20.806Z,3.28
2022-10-11T06:55:06.159Z,3.34
2022-10-11T06:57:51.182Z,3.33
2022-10-11T07:00:36.525Z,3.33
2022-10-11T07:03:21.857Z,3.42
2022-10-11T07:06:16.398Z,3.43
2022-10-11T07:09:02.087Z,3.41
2022-10-11T07:11:48.849Z,3.53
2022-10-11T07:14:34.219Z,3.69
2022-10-11T07:17:19.596Z,3.79
2022-10-11T07:20:06.749Z,3.91
2022-10-11T07:22:51.810Z,3.97
2022-10-11T07:25:36.993Z,4.06
2022-10-11T07:28:23.346Z,4.10
2022-10-11T07:31:15.952Z,4.29
2022-10-11T07:34:01.280Z,5.05
2022-10-11T07:36:46.980Z,5.18
2022-10-11T07:39:32.273Z,4.99
2022-10-11T07:42:17.561Z,4.99
2022-10-11T07:45:04.189Z,5.10
2022-10-11T07:47:49.269Z,5.15
2022-10-11T07:50:35.420Z,5.14
2022-10-11T07:53:20.474Z,5.23
2022-10-11T07:56:06.123Z,5.27
2022-10-11T07:58:53.944Z,5.31
2022-10-11T08:01:39.318Z,5.34
2022-10-11T08:04:25.413Z,5.69
2022-10-11T08:07:10.476Z,5.84
2022-10-11T08:09:56.456Z,5.99
2022-10-11T08:12:41.696Z,6.06
2022-10-11T08:15:28.978Z,6.11
2022-10-11T08:18:14.150Z,6.26
2022-10-11T08:20:59.258Z,6.28
2022-10-11T08:24:06.429Z,6.49
2022-10-11T08:26:52.011Z,6.50
2022-10-11T08:29:37.496Z,6.69
2022-10-11T08:32:22.570Z,6.59
2022-10-11T08:35:07.842Z,6.74
2022-10-11T08:37:52.871Z,6.87
2022-10-11T08:40:38.681Z,6.96
2022-10-11T08:43:43.523Z,7.13
2022-10-11T08:46:32.210Z,7.23
2022-10-11T08:49:23.110Z,7.33
2022-10-11T08:52:28.797Z,7.45
2022-10-11T08:55:38.332Z,7.61
2022-10-11T08:58:40.163Z,7.72
2022-10-11T09:01:27.462Z,7.83
2022-10-11T09:04:18.176Z,7.94
2022-10-11T09:07:40.837Z,8.09
2022-10-11T09:10:49.618Z,8.22
2022-10-11T09:14:08.052Z,8.37
2022-10-11T09:17:00.711Z,8.49
2022-10-11T09:20:01.317Z,8.61
2022-10-11T09:23:01.441Z,8.73
2022-10-11T09:26:02.480Z,8.88
2022-10-11T09:29:06.493Z,9.02
2022-10-11T09:31:54.740Z,9.12
2022-10-11T09:34:40.320Z,9.22
2022-10-11T09:37:33.797Z,9.35
2022-10-11T09:40:50.434Z,9.33
2022-10-11T09:43:35.419Z,9.62
2022-10-11T09:46:34.588Z,9.75
2022-10-11T09:49:21.786Z,9.89
2022-10-11T09:52:15.526Z,9.91
2022-10-11T09:55:02.509Z,10.01
2022-10-11T09:57:54.786Z,10.13
2022-10-11T10:00:40.028Z,10.14
2022-10-11T10:03:35.389Z,10.34
2022-10-11T10:06:26.074Z,10.47
2022-10-11T10:09:26.628Z,10.59
2022-10-11T10:12:14.559Z,10.70
2022-10-11T10:15:17.630Z,10.77
2022-10-11T10:18:06.256Z,10.97
2022-10-11T10:20:55.335Z,11.07
2022-10-11T10:23:41.834Z,11.16
2022-10-11T10:26:27.527Z,11.23
2022-10-11T10:29:12.414Z,11.32
2022-10-11T10:32:14.717Z,11.46
2022-10-11T10:35:12.445Z,11.61
2022-10-11T10:38:10.618Z,11.76
2022-10-11T10:41:01.219Z,11.75
2022-10-11T10:43:53.560Z,11.91
2022-10-11T10:46:58.647Z,11.90
2022-10-11T10:49:54.824Z,12.01
2022-10-11T10:52:58.646Z,12.32
2022-10-11T10:55:47.345Z,12.29
2022-10-11T10:58:59.195Z,12.53
2022-10-11T11:02:38.894Z,12.68
2022-10-11T11:05:43.769Z,12.84
2022-10-11T11:09:02.849Z,13.01
2022-10-11T11:11:53.876Z,13.13
2022-10-11T11:14:52.540Z,13.18
2022-10-11T11:18:01.870Z,13.29
2022-10-11T11:21:10.321Z,13.43
2022-10-11T11:24:22.417Z,13.67
2022-10-11T11:27:35.923Z,13.73
2022-10-11T11:30:26.283Z,13.94
2022-10-11T11:33:35.218Z,14.07
2022-10-11T11:36:33.946Z,14.26
2022-10-11T11:39:23.815Z,14.39
2022-10-11T11:42:13.386Z,14.61
2022-10-11T11:45:05.717Z,14.75
2022-10-11T11:48:00.156Z,14.77
2022-10-11T11:50:55.642Z,15.04
2022-10-11T11:54:01.769Z,14.93
2022-10-11T11:57:24.458Z,14.23
2022-10-11T12:00:19.556Z,14.12
2022-10-11T12:03:12.579Z,14.69
2022-10-11T12:06:18.891Z,14.92
2022-10-11T12:09:21.506Z,15.32
2022-10-11T12:12:24.885Z,15.47
2022-10-11T12:15:10.151Z,15.65
2022-10-11T12:17:58.306Z,15.35
2022-10-11T12:20:44.076Z,15.41
2022-10-11T12:23:29.044Z,15.62
2022-10-11T12:26:32.639Z,15.82
2022-10-11T12:29:25.914Z,16.07
2022-10-11T12:32:48.011Z,16.43
2022-10-11T12:35:33.712Z,16.55
2022-10-11T12:38:18.735Z,16.53
2022-10-11T12:41:09.699Z,16.63
2022-10-11T12:44:33.634Z,16.89
2022-10-11T12:47:37.310Z,17.04
2022-10-11T12:50:47.685Z,17.12
2022-10-11T12:54:27.269Z,17.27
2022-10-11T12:57:20.066Z,17.33
2022-10-11T13:00:27.973Z,17.24
2022-10-11T13:03:32.823Z,17.48
2022-10-11T13:06:28.930Z,17.65
2022-10-11T13:09:33.555Z,17.76
2022-10-11T13:12:23.242Z,17.80
2022-10-11T13:15:17.139Z,17.86
2022-10-11T13:18:02.310Z,17.96
2022-10-11T13:20:47.631Z,18.06
2022-10-11T13:23:38.864Z,17.97
2022-10-11T13:26:25.768Z,18.13
2022-10-11T13:29:36.059Z,18.26
2022-10-11T13:32:27.419Z,18.43
2022-10-11T13:35:22.331Z,18.49
2022-10-11T13:38:27.868Z,18.29
2022-10-11T13:41:13.319Z,18.51
2022-10-11T13:44:00.214Z,18.57
2022-10-11T13:46:46.333Z,18.65
2022-10-11T13:49:42.858Z,18.81
2022-10-11T13:52:27.943Z,18.94
2022-10-11T13:55:24.888Z,19.09
2022-10-11T13:58:18.736Z,19.20
2022-10-11T14:01:19.566Z,19.22
2022-10-11T14:04:08.778Z,19.21
2022-10-11T14:07:00.169Z,19.28
2022-10-11T14:09:46.950Z,19.31
2022-10-11T14:12:35.608Z,19.43
2022-10-11T14:15:27.260Z,19.43
2022-10-11T14:18:41.845Z,19.33
2022-10-11T14:21:45.796Z,19.48
2022-10-11T14:24:31.114Z,19.55
2022-10-11T14:27:21.391Z,19.55
2022-10-11T14:30:27.339Z,19.30
2022-10-11T14:33:12.945Z,19.49
2022-10-11T14:35:58.134Z,19.36
2022-10-11T14:38:43.355Z,19.37
2022-10-11T14:41:28.661Z,19.28
2022-10-11T14:44:14.602Z,19.25
2022-10-11T14:46:59.870Z,19.37
2022-10-11T14:49:45.324Z,19.52
2022-10-11T14:52:30.350Z,19.43
2022-10-11T14:55:16.047Z,19.39
2022-10-11T14:58:01.412Z,19.22
2022-10-11T15:00:46.793Z,19.10
2022-10-11T15:03:31.993Z,18.98
2022-10-11T15:06:32.529Z,18.72
2022-10-11T15:09:20.788Z,18.73
2022-10-11T15:12:06.097Z,18.53
2022-10-11T15:14:51.302Z,18.30
2022-10-11T15:17:36.870Z,18.22
2022-10-11T15:20:37.433Z,17.84
2022-10-11T15:23:22.581Z,17.55
2022-10-11T15:26:16.002Z,17.45
2022-10-11T15:29:01.048Z,17.27
2022-10-11T15:31:46.463Z,17.17
2022-10-11T15:34:31.714Z,17.12
2022-10-11T15:37:16.675Z,16.96
2022-10-11T15:40:01.836Z,16.69
2022-10-11T15:42:47.543Z,16.59
2022-10-11T15:45:32.719Z,16.54
2022-10-11T15:48:21.639Z,16.42
2022-10-11T15:51:06.582Z,16.18
2022-10-11T15:53:51.665Z,16.12
2022-10-11T15:56:37.111Z,15.91
2022-10-11T15:59:22.273Z,15.86
2022-10-11T16:02:14.326Z,15.79
2022-10-11T16:04:59.587Z,15.76
2022-10-11T16:07:44.580Z,15.60
2022-10-11T16:10:29.529Z,15.57
2022-10-11T16:13:15.797Z,15.52
2022-10-11T16:16:07.701Z,15.41
2022-10-11T16:18:53.143Z,15.43
2022-10-11T16:21:38.073Z,15.32
2022-10-11T16:24:22.899Z,15.18
2022-10-11T16:27:08.224Z,15.00
2022-10-11T16:29:53.853Z,15.13
2022-10-11T16:32:39.785Z,15.07
2022-10-11T16:35:28.967Z,15.03
2022-10-11T16:38:17.501Z,14.81
2022-10-11T16:41:05.803Z,15.06
2022-10-11T16:43:52.250Z,15.50
2022-10-11T16:46:37.104Z,15.78
2022-10-11T16:49:24.965Z,15.57
2022-10-11T16:52:10.929Z,15.09
2022-10-11T16:54:55.936Z,15.27
2022-10-11T16:57:41.210Z,15.62
2022-10-11T17:00:26.373Z,15.67
2022-10-11T17:03:11.480Z,15.16
2022-10-11T17:05:56.747Z,14.73
2022-10-11T17:08:41.958Z,14.33
2022-10-11T17:11:26.962Z,14.25
2022-10-11T17:14:13.513Z,14.00
2022-10-11T17:16:58.656Z,13.92
2022-10-11T17:19:45.308Z,13.76
2022-10-11T17:22:30.731Z,13.42
2022-10-11T17:25:16.115Z,13.42
2022-10-11T17:28:01.448Z,13.07
2022-10-11T17:30:57.958Z,13.02
2022-10-11T17:33:43.017Z,12.82
2022-10-11T17:36:31.852Z,12.73
2022-10-11T17:39:20.249Z,12.73
2022-10-11T17:42:07.472Z,12.71
2022-10-11T17:44:52.301Z,12.53
2022-10-11T17:47:37.586Z,12.41
2022-10-11T17:50:22.962Z,12.32
2022-10-11T17:53:08.126Z,12.16
2022-10-11T17:55:54.193Z,12.11
2022-10-11T17:58:39.980Z,12.02
2022-10-11T18:01:28.180Z,11.93
2022-10-11T18:04:16.691Z,11.82
2022-10-11T18:07:01.621Z,11.77
2022-10-11T18:09:46.527Z,11.72
2022-10-11T18:12:31.443Z,11.63
2022-10-11T18:15:16.360Z,11.60
2022-10-11T18:18:01.833Z,11.57
2022-10-11T18:20:48.657Z,11.54
2022-10-11T18:23:35.383Z,11.32
2022-10-11T18:26:29.409Z,11.24
2022-10-11T18:29:15.515Z,11.27
2022-10-11T18:32:00.569Z,11.10
2022-10-11T18:34:45.693Z,10.96
2022-10-11T18:37:30.934Z,10.86
2022-10-11T18:40:16.829Z,10.84
2022-10-11T18:43:02.255Z,10.78
2022-10-11T18:45:47.092Z,10.64
2022-10-11T18:48:33.175Z,10.62
2022-10-11T18:51:21.461Z,10.71
2022-10-11T18:54:07.533Z,10.45
2022-10-11T18:56:52.671Z,10.42
2022-10-11T18:59:37.680Z,10.33
2022-10-11T19:02:22.609Z,10.35
2022-10-11T19:05:08.324Z,10.25
2022-10-11T19:07:53.158Z,10.30
2022-10-11T19:10:38.073Z,10.22
2022-10-11T19:13:22.970Z,10.17
2022-10-11T19:16:17.729Z,9.99
2022-10-11T19:19:03.636Z,9.84
2022-10-11T19:21:49.478Z,9.87
2022-10-11T19:24:34.851Z,9.82
2022-10-11T19:27:19.994Z,9.67
2022-10-11T19:30:05.495Z,9.55
2022-10-11T19:32:50.682Z,9.50
2022-10-11T19:35:35.918Z,9.44
2022-10-11T19:41:12.207Z,9.30
2022-10-11T19:43:58.200Z,9.32
2022-10-11T19:46:51.555Z,9.30
2022-10-11T19:49:37.536Z,9.25
2022-10-11T19:52:22.434Z,9.01
2022-10-11T19:55:08.110Z,9.23
2022-10-11T19:57:52.939Z,9.09
2022-10-11T20:00:38.038Z,9.00
2022-10-11T20:03:23.455Z,9.02
2022-10-11T20:06:09.702Z,8.99
2022-10-11T20:09:16.662Z,8.95
2022-10-11T20:12:00.411Z,8.95
2022-10-11T20:14:45.373Z,8.88
2022-10-11T20:17:56.865Z,8.74
2022-10-11T20:20:52.151Z,8.45
2022-10-11T20:23:39.014Z,8.46
2022-10-11T20:26:25.402Z,8.49
2022-10-11T20:29:10.472Z,8.44
2022-10-11T20:31:56.430Z,8.36
2022-10-11T20:34:41.739Z,8.28
2022-10-11T20:37:27.087Z,8.18
2022-10-11T20:40:12.855Z,8.13
2022-10-11T20:42:58.100Z,8.05
2022-10-11T20:45:43.052Z,8.16
2022-10-11T20:48:29.109Z,7.89
2022-10-11T20:51:14.293Z,7.85
2022-10-11T20:54:00.651Z,7.90
2022-10-11T20:56:45.612Z,7.86
2022-10-11T20:59:30.939Z,7.80
2022-10-11T21:02:18.999Z,7.64
2022-10-11T21:05:04.731Z,7.67
2022-10-11T21:07:50.284Z,7.73
2022-10-11T21:10:35.738Z,7.56
2022-10-11T21:13:21.415Z,7.56
2022-10-11T21:16:11.270Z,7.64
2022-10-11T21:18:59.051Z,7.54
2022-10-11T21:21:46.413Z,7.47
2022-10-11T21:24:33.482Z,7.38
2022-10-11T21:27:18.720Z,7.27
2022-10-11T21:30:04.005Z,7.21
2022-10-11T21:32:50.655Z,7.18
2022-10-11T21:35:39.057Z,7.11
2022-10-11T21:38:25.662Z,7.10
2022-10-11T21:41:13.550Z,7.04
2022-10-11T21:43:58.665Z,7.03
2022-10-11T21:49:48.902Z,6.73
2022-10-11T21:52:34.048Z,6.99
2022-10-11T21:55:19.195Z,6.92
2022-10-11T21:58:06.188Z,6.77
2022-10-11T22:00:51.833Z,6.76
2022-10-11T22:03:37.004Z,6.68
2022-10-11T22:06:22.075Z,6.60
2022-10-11T22:09:08.708Z,6.65
2022-10-11T22:11:53.971Z,6.37
2022-10-11T22:14:39.147Z,6.47
2022-10-11T22:17:24.852Z,6.62
2022-10-11T22:20:10.225Z,6.59
2022-10-11T22:22:55.487Z,6.51
2022-10-11T22:25:40.928Z,6.45
2022-10-11T22:28:25.999Z,6.32
2022-10-11T22:31:10.899Z,6.28
2022-10-11T22:33:57.805Z,6.28
2022-10-11T22:36:42.592Z,6.25
2022-10-11T22:39:27.869Z,6.16
2022-10-11T22:42:13.138Z,6.06
2022-10-11T22:44:58.568Z,5.82
2022-10-11T22:47:43.523Z,5.89
2022-10-11T22:50:28.560Z,5.82
2022-10-11T22:53:14.590Z,5.91
2022-10-11T22:56:00.235Z,5.88
2022-10-11T22:58:45.436Z,5.86
2022-10-11T23:01:30.586Z,5.70
2022-10-11T23:04:17.656Z,5.73
2022-10-11T23:07:05.166Z,5.71
2022-10-11T23:09:50.328Z,5.68
2022-10-11T23:12:35.271Z,5.66
2022-10-11T23:15:20.210Z,5.61
2022-10-11T23:18:05.057Z,5.69
2022-10-11T23:20:50.394Z,5.64
2022-10-11T23:23:35.805Z,5.59
2022-10-11T23:26:21.026Z,5.56
2022-10-11T23:29:06.187Z,5.42
2022-10-11T23:31:51.710Z,5.53
2022-10-11T23:34:37.632Z,5.53
2022-10-11T23:37:22.803Z,5.53
2022-10-11T23:40:08.426Z,5.53
2022-10-11T23:42:53.611Z,5.52
2022-10-11T23:45:38.629Z,5.53
2022-10-11T23:48:23.503Z,5.55
2022-10-11T23:51:08.854Z,5.55
2022-10-11T23:53:54.127Z,5.49
2022-10-11T23:56:38.938Z,5.56
2022-10-11T23:59:23.997Z,5.57
